Terminal Aerodrome Forecast
Issued by NWS Bismarck, ND

Home | Current Version | Previous Version | Graphics & Text | Print | Product List | Glossary On
Versions: 1 2 3 4 5 6 7 8 9 10 11 12 13 14 15 16 17
000
FTUS43 KBIS 191100
TAFISN
TAF
KISN 191133Z 1912/2012 27010KT P6SM BKN120
     FM191600 28015G23KT P6SM SCT120
     FM191900 29018G26KT P6SM BKN060
     FM200200 31009KT P6SM SCT060=

USA.gov is the U.S. government's official web portal to all federal, state and local government web resources and services.